Tiempo atmosférico en la estación meteorológica de Bera, Navarra (78 m.)



Fecha
DESCASC
Temp. máxima en grados centígrados (hora)
DESCASC
Temp. mínima en grados centígrados (hora)
DESCASC
Temp. media en grados centígrados
DESCASC
Racha de viento máxima en m/sg (hora)
DESCASC
Velocidad máxima media en intervalos de 10 minutos(hora)
DESCASC
Precipitaciones diarias en mm
DESCASC
Precipitaciones de 00:00 a 06:00 en mm
DESCASC
Precipitaciones de 06:00 a 12:00 en mm
DESCASC
Precipitaciones de 12:00 a 18:00 en mm
DESCASC
Precipitaciones de 18:00 a 24:00 en mm
DESCASC
14-12-2019 19.1 (14:00) 10.5 (02:50) 14.8 7.5 (22:50) 3.61 (14:10) 0 0 0 0 0
13-12-2019 15.5 (07:50) 13.9 (17:40) 14.7 21.39 (12:00) 8.89 (07:50) 35.6 19.6 0.4 13.2 2.4
12-12-2019 14.3 (23:30) 8 (08:20) 11.2 18.06 (23:30) 6.67 (21:40) 61 13.8 2 12.2 33
11-12-2019 10.5 (13:50) 5.9 (00:00) 8.2 11.39 (19:30) 5.28 (19:30) 53.2 0 18.4 5.8 29
10-12-2019 14.4 (15:10) 5.5 (00:00) 9.9 2.22 (15:40) 1.11 (14:40) 0.6 0.6 0 0 0
09-12-2019 13.1 (14:00) 8.6 (00:00) 10.9 13.89 (11:10) 5.83 (13:40) 23.8 1.8 8.8 9.2 4
08-12-2019 13 (17:50) 4.1 (00:00) 8.5 7.5 (18:10) 3.33 (18:10) 6 0 0 6 0
07-12-2019 16.8 (16:00) 3.5 (00:00) 10.1 2.5 (16:30) 1.11 (16:20) 0 0 0 0 0
06-12-2019 17.6 (15:30) 4.6 (00:00) 11.1 7.5 (13:40) 2.78 (14:00) 0.2 0.2 0 0 0
05-12-2019 13.8 (14:30) 4 (00:00) 8.9 4.44 (13:50) 1.94 (13:30) 0 0 0 0 0
04-12-2019 9.5 (16:00) 1.1 (00:00) 5.3 7.22 (16:20) 2.78 (16:20) 0 0 0 0 0
03-12-2019 7.6 (14:50) 1.3 (00:00) 4.4 2.5 (10:20) 1.39 (15:30) 0 0 0 0 0
02-12-2019 9.5 (12:00) 5.3 (00:00) 7.4 5.28 (15:00) 2.5 (15:00) 2 0.4 0.2 1.4 0
01-12-2019 14.2 (15:50) 3.5 (00:00) 8.8 4.17 (15:30) 2.22 (15:30) 0.2 0.2 0 0 0
30-11-2019 16.8 (11:30) 5.5 (00:00) 11.1 12.5 (08:50) 4.44 (12:20) 24.4 0 0.6 22.2 1.6
29-11-2019 18 (14:20) 6.6 (00:00) 12.3 3.06 (15:10) 1.39 (14:00) 1.6 1.6 0 0 0
28-11-2019 13.7 (14:50) 7.6 (00:00) 10.6 4.72 (17:00) 1.67 (17:00) 6.6 0.4 1.2 2.8 2.2
27-11-2019 17.7 (14:10) 6.5 (00:00) 12.1 9.17 (18:10) 3.33 (18:10) 0.8 0 0 0 0.8
26-11-2019 19.4 (22:10) 7.7 (00:00) 13.5 13.61 (19:10) 5 (22:40) 0 0 0 0 0
25-11-2019 18.3 (13:30) 8.4 (00:00) 13.3 4.72 (13:40) 2.22 (13:40) 0.2 0 0.2 0 0
24-11-2019 14.7 (14:50) 7.2 (00:00) 10.9 8.33 (01:40) 3.61 (01:40) 28.8 12.2 13.2 0.2 3.2
23-11-2019 14.4 (00:50) 8.9 (00:00) 11.6 19.17 (10:20) 7.5 (09:50) 70.2 0.4 40.4 6.6 22.8
22-11-2019 15.2 (16:40) 5.4 (00:00) 10.3 15 (14:40) 7.5 (14:40) 3.8 0 0 0 3.8
21-11-2019 15.3 (13:30) 4.8 (00:00) 10.1 8.89 (01:10) 3.61 (01:10) 0 0 0 0 0
20-11-2019 14.1 (15:50) 1.1 (00:00) 7.6 9.72 (06:30) 3.06 (09:10) 0.2 0 0 0 0.2
19-11-2019 12.2 (14:50) 2.2 (00:00) 7.2 3.61 (16:20) 1.39 (15:10) 0.2 0.2 0 0 0
18-11-2019 10 (14:20) 3.9 (00:00) 7 3.89 (13:40) 1.39 (13:30) 2.8 2.6 0.2 0 0
17-11-2019 10.4 (15:20) 6.8 (00:00) 8.6 9.72 (17:00) 3.61 (17:00) 21.8 0.2 1.4 6 14.2
16-11-2019 8.7 (19:50) 1.5 (00:00) 5.1 10.28 (19:00) 3.89 (18:30) 29.4 0.2 6.6 17.6 5

Gráficas

Temp. máximas Temp. mínimas Temp. medias Precipitaciones Rachas de viento máximas Velocidades máximas media en intervalos de 10 minutos

Datos horarios

Fecha y hora oficial Temperatura (ºC) Velocidad del viento (km/h) Dirección del viento Racha (km/h) Dirección de racha Precipitación (mm) Presión (hPa) Tendencia (hPa) Humedad (%)
2019-12-15 23:00:00 15.4 6 Norte 48 Sur 0 -- -- 55
2019-12-15 22:00:00 15.7 6 Sudoeste 38 Este 0 -- -- 53
2019-12-15 21:00:00 15.9 9 Sudoeste 36 Sudoeste 0 -- -- 52
2019-12-15 20:00:00 15.8 8 Sudoeste 25 Sudoeste 0 -- -- 53
2019-12-15 19:00:00 16.3 7 Sudeste 32 Sudeste 0 -- -- 52
2019-12-15 18:00:00 16.3 5 Sur 28 Sudoeste 0 -- -- 54
2019-12-15 17:00:00 16.9 9 Sur 31 Sur 0 -- -- 51
2019-12-15 16:00:00 17.2 9 Sudoeste 35 Sur 0 -- -- 50
2019-12-15 15:00:00 18.1 10 Sur 29 Sur 0 -- -- 48
2019-12-15 14:00:00 18.4 10 Sudoeste 32 Este 0 -- -- 48
2019-12-15 13:00:00 17.8 11 Este 32 Este 0 -- -- 48
2019-12-15 12:00:00 17.6 12 Este 29 Sudeste 0 -- -- 49
2019-12-15 11:00:00 16.1 13 Este 33 Este 0 -- -- 51
2019-12-15 10:00:00 14.9 9 Sudeste 23 Este 0 -- -- 55
2019-12-15 09:00:00 14.6 9 Sudeste 26 Sudeste 0 -- -- 57
2019-12-15 08:00:00 14.7 8 Sudeste 25 Sur 0 -- -- 56
2019-12-15 07:00:00 15 10 Sudeste 25 Sur 0 -- -- 55
2019-12-15 06:00:00 15.1 11 Sur 26 Sudoeste 0 -- -- 55
2019-12-15 05:00:00 14.8 5 Sudoeste 28 Sudeste 0 -- -- 59
2019-12-15 04:00:00 15.5 6 Sur 24 Sur 0 -- -- 55
2019-12-15 03:00:00 15.8 10 Sudoeste 28 Sur 0 -- -- 55
2019-12-15 02:00:00 15.4 7 Sudeste 24 Sur 0 -- -- 57
2019-12-15 01:00:00 15.3 8 Sur 22 Sudeste 0 -- -- 56
2019-12-15 00:00:00 15.2 11 Sudeste 27 Sudeste 0 -- -- 57
2019-12-14 23:00:00 15.4 11 Sudeste 27 Sur 0 -- -- 57
2019-12-14 22:00:00 15.3 6 Sur 23 Sur 0 -- -- 58
2019-12-14 21:00:00 15.5 8 Sudeste 22 Sur 0 -- -- 57
2019-12-14 20:00:00 15.3 7 Sur 24 Sudoeste 0 -- -- 58
2019-12-14 19:00:00 12.9 4 Sudeste 11 Sur 0 -- -- 68
2019-12-14 18:00:00 13.5 3 Sur 14 Este 0 -- -- 68
2019-12-14 17:00:00 16.6 4 Sur 15 Sur 0 -- -- 55
2019-12-14 16:00:00 17.8 4 Sur 19 Sur 0 -- -- 53
2019-12-14 15:00:00 18.8 8 Sur 25 Sudoeste 0 -- -- 55
2019-12-14 14:00:00 19.1 7 Sur 18 Sur 0 -- -- 56
2019-12-14 13:00:00 18 4 Sudeste 14 Sudeste 0 -- -- 58
2019-12-14 12:00:00 16.5 5 Sudeste 12 Sudeste 0 -- -- 63
2019-12-14 11:00:00 14.8 2 Norte 8 Noroeste 0 -- -- 73
2019-12-14 10:00:00 12.5 2 Noroeste 5 Noroeste 0 -- -- 89
2019-12-14 09:00:00 11.6 0 Calma 7 Noroeste 0 -- -- 91
2019-12-14 08:00:00 11.4 0 Calma 6 Noroeste 0 -- -- 91
2019-12-14 07:00:00 11.7 0 Calma 4 Sur 0 -- -- 89
2019-12-14 06:00:00 12.8 3 Sudeste 9 Noroeste 0 -- -- 83
2019-12-14 05:00:00 14.5 5 Oeste 18 Sudoeste 0 -- -- 73
2019-12-14 04:00:00 13.2 9 Oeste 21 Sudoeste 0 -- -- 76
2019-12-14 03:00:00 10.6 3 Este 10 Sudeste 0 -- -- 94
2019-12-14 02:00:00 11.8 2 Este 6 Sudeste 0 -- -- 89
2019-12-14 01:00:00 13 4 Sudeste 15 Noroeste 0 -- -- 84
2019-12-14 00:00:00 14.4 4 Noroeste 32 Sudoeste 0 -- -- 75
2019-12-13 23:00:00 14.7 14 Oeste 36 Oeste 0 -- -- 73
2019-12-13 22:00:00 14.6 13 Oeste 38 Noroeste 0 -- -- 76
2019-12-13 21:00:00 14.5 17 Oeste 46 Oeste 0 -- -- 79
2019-12-13 20:00:00 14.7 15 Oeste 39 Oeste 0 -- -- 82
2019-12-13 19:00:00 14.4 20 Oeste 56 Oeste 2.4 -- -- 87
2019-12-13 18:00:00 14 17 Oeste 45 Noroeste 7.4 -- -- 92
2019-12-13 17:00:00 14.1 13 Oeste 60 Oeste 5 -- -- 93
2019-12-13 16:00:00 14.7 18 Oeste 64 Oeste 0.4 -- -- 87
2019-12-13 15:00:00 15.2 17 Oeste 48 Oeste 0 -- -- 84
2019-12-13 14:00:00 15.1 20 Oeste 76 Oeste 0 -- -- 83
2019-12-13 13:00:00 15.3 21 Oeste 57 Oeste 0.4 -- -- 82
2019-12-13 12:00:00 15.2 25 Oeste 77 Noroeste 0 -- -- 84
2019-12-13 11:00:00 14.8 20 Oeste 65 Oeste 0.4 -- -- 86
2019-12-13 10:00:00 15.3 29 Oeste 75 Sudoeste 0 -- -- 83
2019-12-13 09:00:00 15.4 21 Oeste 62 Oeste 0 -- -- 80
2019-12-13 08:00:00 15.4 31 Oeste 66 Oeste 0 -- -- 81
2019-12-13 07:00:00 15.3 19 Oeste 63 Oeste 0 -- -- 82
2019-12-13 06:00:00 15.3 25 Oeste 57 Oeste 0 -- -- 82
2019-12-13 05:00:00 14.5 19 Oeste 60 Oeste 2.8 -- -- 89
2019-12-13 04:00:00 14.5 11 Oeste 62 Oeste 3.8 -- -- 90
2019-12-13 03:00:00 14.7 24 Oeste 59 Sudoeste 4.6 -- -- 87
2019-12-13 02:00:00 14.2 13 Oeste 69 Sudoeste 6.2 -- -- 92
2019-12-13 01:00:00 14.4 21 Oeste 68 Oeste 2.2 -- -- 91
2019-12-13 00:00:00 14.2 19 Oeste 65 Noroeste 4.2 -- -- 92
2019-12-12 23:00:00 14.1 15 Oeste 53 Oeste 7.8 -- -- 93
2019-12-12 22:00:00 14 20 Oeste 64 Oeste 5 -- -- 92
2019-12-12 21:00:00 13.6 13 Oeste 47 Noroeste 5 -- -- 93
2019-12-12 20:00:00 12.7 15 Oeste 32 Oeste 7.8 -- -- 94
2019-12-12 19:00:00 11.7 5 Sudoeste 26 Oeste 3.2 -- -- 91
2019-12-12 18:00:00 11.2 7 Sudoeste 20 Sur 3.4 -- -- 90
2019-12-12 17:00:00 10.8 8 Sur 21 Sudoeste 3.2 -- -- 87
2019-12-12 16:00:00 10.5 8 Sur 22 Sudoeste 2.4 -- -- 85
2019-12-12 15:00:00 10.2 5 Sur 19 Sudoeste 1.4 -- -- 84
2019-12-12 14:00:00 9.8 3 Sur 12 Sudeste 1.4 -- -- 89
2019-12-12 13:00:00 9.5 0 Calma 7 Noroeste 0.4 -- -- 92
2019-12-12 12:00:00 9.4 2 Norte 6 Este 0 -- -- 94
2019-12-12 11:00:00 8.8 0 Calma 4 Noroeste 0.2 -- -- 98
2019-12-12 10:00:00 8.3 0 Calma 9 Noroeste 0.2 -- -- 98
2019-12-12 09:00:00 8 0 Calma 4 Sur 0.6 -- -- 98
2019-12-12 08:00:00 8.1 0 Calma 4 Norte 0.4 -- -- 97
2019-12-12 07:00:00 8.2 0 Calma 6 Nordeste 0.6 -- -- 96
2019-12-12 06:00:00 8.7 2 Sur 20 Sudoeste 1.6 -- -- 91
2019-12-12 05:00:00 8.6 2 Norte 15 Oeste 3.6 -- -- 95
2019-12-12 04:00:00 9.6 12 Oeste 36 Oeste 1 -- -- 85
2019-12-12 03:00:00 9.3 9 Oeste 31 Oeste 2 -- -- 90
2019-12-12 02:00:00 8.4 2 Este 7 Sudoeste 3.2 -- -- 97
2019-12-12 01:00:00 8.3 3 Nordeste 8 Norte 2.4 -- -- 96
2019-12-12 00:00:00 8.7 5 Oeste 19 Oeste 8.4 -- -- 93
2019-12-11 23:00:00 8.8 4 Noroeste 15 Sudoeste 3 -- -- 94
2019-12-11 22:00:00 8.9 3 Oeste 37 Sudoeste 6.2 -- -- 90
2019-12-11 21:00:00 9.7 12 Oeste 35 Oeste 2.8 -- -- 88
2019-12-11 20:00:00 9.1 11 Oeste 41 Oeste 6.6 -- -- 89
2019-12-11 19:00:00 9.4 9 Oeste 31 Noroeste 2 -- -- 85
2019-12-11 18:00:00 9.2 6 Oeste 17 Sudeste 0 -- -- 78
2019-12-11 17:00:00 9.4 3 Sudoeste 26 Oeste 1.2 -- -- 83
2019-12-11 16:00:00 9.6 6 Noroeste 28 Oeste 1.8 -- -- 87
2019-12-11 15:00:00 9.7 9 Oeste 26 Norte 2.2 -- -- 88
2019-12-11 14:00:00 10.4 6 Oeste 22 Oeste 0 -- -- 83
2019-12-11 13:00:00 9.7 8 Oeste 23 Oeste 0.6 -- -- 88
2019-12-11 12:00:00 9.1 5 Oeste 21 Sudoeste 1.6 -- -- 89
2019-12-11 11:00:00 9.6 9 Oeste 41 Oeste 5.8 -- -- 92
2019-12-11 10:00:00 10.2 15 Oeste 41 Noroeste 8.8 -- -- 98
2019-12-11 09:00:00 8.3 3 Sur 9 Sur 2.2 -- -- 99
2019-12-11 08:00:00 6.7 0 Calma 6 Sudeste 0 -- -- 99
2019-12-11 07:00:00 6.5 3 Noroeste 9 Noroeste 0 -- -- 99
2019-12-11 06:00:00 6.2 0 Calma 4 Este 0 -- -- 98
2019-12-11 05:00:00 6.2 2 Este 8 Sudoeste 0 -- -- 99
2019-12-11 04:00:00 6.1 2 Este 6 Sur 0 -- -- 98
2019-12-11 03:00:00 6.3 0 Calma 4 Este 0 -- -- 98
2019-12-11 02:00:00 6.7 0 Calma 3 Sudeste 0 -- -- 98
2019-12-11 01:00:00 7 0 Calma 4 Nordeste 0 -- -- 99
2019-12-11 00:00:00 6.6 0 Calma 4 Noroeste 0 -- -- 99
2019-12-10 23:00:00 6 0 Calma 2 Sudeste 0 -- -- 98
2019-12-10 22:00:00 5.7 2 Este 4 Este 0 -- -- 97
2019-12-10 21:00:00 6 0 Calma 3 Sudeste 0 -- -- 97
2019-12-10 20:00:00 6 0 Calma 3 Este 0 -- -- 96
2019-12-10 19:00:00 6.8 0 Calma 4 Este 0 -- -- 94
2019-12-10 18:00:00 8.3 0 Calma 5 Sudeste 0 -- -- 91
2019-12-10 17:00:00 10.7 0 Calma 6 Sudeste 0 -- -- 87
2019-12-10 16:00:00 12.6 0 Calma 8 Sudeste 0 -- -- 79
2019-12-10 15:00:00 14.3 2 Sudeste 6 Nordeste 0 -- -- 74
2019-12-10 14:00:00 13 2 Este 4 Este 0 -- -- 77
2019-12-10 13:00:00 11 0 Calma 4 Oeste 0 -- -- 89
2019-12-10 12:00:00 8.4 2 Nordeste 6 Nordeste 0 -- -- 97
2019-12-10 11:00:00 7.5 3 Norte 5 Nordeste 0 -- -- 99
2019-12-10 10:00:00 7.1 0 Calma 5 Sudoeste 0 -- -- 99
2019-12-10 09:00:00 7.1 2 Sudeste 5 Sudeste 0 -- -- 99
2019-12-10 08:00:00 7.4 0 Calma 4 Sudeste 0 -- -- 99
2019-12-10 07:00:00 7.6 0 Calma 2 Este 0 -- -- 99
2019-12-10 06:00:00 7.8 0 Calma 3 Sudeste 0 -- -- 99
2019-12-10 05:00:00 7.5 0 Calma 4 Sudeste 0 -- -- 98
2019-12-10 04:00:00 8.3 0 Calma 2 Este 0.2 -- -- 98
2019-12-10 03:00:00 8.5 0 Calma 4 Oeste 0 -- -- 98
2019-12-10 02:00:00 8.5 0 Calma 4 Este 0.2 -- -- 98
2019-12-10 01:00:00 8.5 0 Calma 4 Nordeste 0.2 -- -- 97
2019-12-10 00:00:00 8.6 0 Calma 8 Sudeste 0.4 -- -- 95
2019-12-09 23:00:00 9.2 0 Calma 9 Oeste 0.6 -- -- 95
2019-12-09 22:00:00 9.7 3 Oeste 8 Noroeste 0 -- -- 94
2019-12-09 21:00:00 10.3 3 Oeste 13 Oeste 0.4 -- -- 92
2019-12-09 20:00:00 10.4 5 Oeste 19 Noroeste 1 -- -- 91
2019-12-09 19:00:00 10.5 4 Noroeste 19 Noroeste 1.6 -- -- 89
2019-12-09 18:00:00 10.6 14 Oeste 32 Oeste 1 -- -- 87
2019-12-09 17:00:00 10.8 12 Oeste 38 Noroeste 1.6 -- -- 86
2019-12-09 16:00:00 11 10 Noroeste 36 Oeste 2.4 -- -- 84
2019-12-09 15:00:00 12.3 18 Noroeste 43 Noroeste 2.4 -- -- 77
2019-12-09 14:00:00 13.1 15 Oeste 48 Oeste 0 -- -- 68
2019-12-09 13:00:00 12.1 10 Oeste 47 Noroeste 1.8 -- -- 77
2019-12-09 12:00:00 12.1 14 Oeste 50 Noroeste 1.2 -- -- 84
2019-12-09 11:00:00 12.5 12 Noroeste 48 Oeste 1.2 -- -- 80
2019-12-09 10:00:00 11.7 13 Noroeste 29 Sudoeste 2.8 -- -- 86
2019-12-09 09:00:00 11.8 9 Oeste 38 Oeste 0.6 -- -- 84
2019-12-09 08:00:00 11.6 13 Noroeste 35 Noroeste 2.6 -- -- 88
2019-12-09 07:00:00 11.9 8 Oeste 44 Sudoeste 0.4 -- -- 83
2019-12-09 06:00:00 11.4 6 Noroeste 36 Sudoeste 1.8 -- -- 86
2019-12-09 05:00:00 12.4 12 Oeste 34 Sudoeste 0 -- -- 74
2019-12-09 04:00:00 12.3 8 Oeste 27 Sudoeste 0 -- -- 77
2019-12-09 03:00:00 12.5 14 Oeste 36 Sudoeste 0 -- -- 74
2019-12-09 02:00:00 12.2 8 Oeste 23 Oeste 0 -- -- 76
2019-12-09 01:00:00 11.2 5 Oeste 19 Noroeste 0 -- -- 83
2019-12-09 00:00:00 10.7 0 Calma 9 Sudoeste 0 -- -- 89
2019-12-08 23:00:00 11.3 2 Este 14 Oeste 0 -- -- 88
2019-12-08 22:00:00 11.2 5 Este 17 Oeste 0 -- -- 86
2019-12-08 21:00:00 12 2 Sudeste 17 Oeste 0 -- -- 88
2019-12-08 20:00:00 12.4 4 Oeste 18 Noroeste 0 -- -- 84
2019-12-08 19:00:00 12.9 6 Noroeste 27 Oeste 0 -- -- 87
2019-12-08 18:00:00 13 10 Oeste 25 Noroeste 1.4 -- -- 99
2019-12-08 17:00:00 11.7 2 Este 6 Sudeste 0.4 -- -- 99
2019-12-08 16:00:00 11 0 Calma 5 Norte 1 -- -- 99
2019-12-08 15:00:00 10.7 0 Calma 4 Noroeste 1.6 -- -- 99
2019-12-08 14:00:00 10.2 0 Calma 3 Norte 1.2 -- -- 99
2019-12-08 13:00:00 9.1 0 Calma 2 Noroeste 0.4 -- -- 99
2019-12-08 12:00:00 8.1 0 Calma 2 Nordeste 0 -- -- 100
2019-12-08 11:00:00 7.1 3 Oeste 6 Oeste 0 -- -- 100
2019-12-08 10:00:00 5.5 0 Calma 2 Noroeste 0 -- -- 100
2019-12-08 09:00:00 4.2 0 Calma 3 Este 0 -- -- 100
2019-12-08 08:00:00 4.5 0 Calma 2 Sur 0 -- -- 99
2019-12-08 07:00:00 4.8 0 Calma 2 Nordeste 0 -- -- 99
2019-12-08 06:00:00 4.8 0 Calma 0 Calma 0 -- -- 99
2019-12-08 05:00:00 4.6 0 Calma 2 Nordeste 0 -- -- 99
2019-12-08 04:00:00 4.8 0 Calma 0 Calma 0 -- -- 99
2019-12-08 03:00:00 4.8 0 Calma 2 Sudeste 0 -- -- 98
2019-12-08 02:00:00 4.7 0 Calma 2 Sudeste 0 -- -- 97
2019-12-08 01:00:00 5.5 0 Calma 3 Sudeste 0 -- -- 97
2019-12-08 00:00:00 5.5 0 Calma 2 Sudeste 0 -- -- 96
2019-12-07 23:00:00 6.3 0 Calma 3 Sudeste 0 -- -- 95
2019-12-07 22:00:00 7.8 2 Este 4 Sudeste 0 -- -- 93
2019-12-07 21:00:00 9.8 0 Calma 3 Sudeste 0 -- -- 92
2019-12-07 20:00:00 10.4 0 Calma 4 Sudeste 0 -- -- 89
2019-12-07 19:00:00 11.8 0 Calma 5 Sudeste 0 -- -- 89
2019-12-07 18:00:00 13 0 Calma 4 Sudeste 0 -- -- 84
2019-12-07 17:00:00 15.3 0 Calma 9 Norte 0 -- -- 74
2019-12-07 16:00:00 16.8 0 Calma 3 Noroeste 0 -- -- 66
2019-12-07 15:00:00 15.8 0 Calma 4 Oeste 0 -- -- 73
2019-12-07 14:00:00 14 0 Calma 4 Sudeste 0 -- -- 74
2019-12-07 13:00:00 9.9 0 Calma 3 Sudoeste 0 -- -- 91
2019-12-07 12:00:00 7.9 0 Calma 3 Noroeste 0 -- -- 99
2019-12-07 11:00:00 6.5 0 Calma 2 Noroeste 0 -- -- 100
2019-12-07 10:00:00 5.1 0 Calma 2 Nordeste 0 -- -- 100
2019-12-07 09:00:00 4.8 0 Calma 2 Nordeste 0 -- -- 99
2019-12-07 08:00:00 4.6 0 Calma 0 Calma 0 -- -- 99
2019-12-07 07:00:00 3.9 0 Calma 2 Sudeste 0 -- -- 98
2019-12-07 06:00:00 3.8 0 Calma 4 Sudeste 0 -- -- 98
2019-12-07 05:00:00 4.5 0 Calma 3 Sudeste 0 -- -- 97
2019-12-07 04:00:00 5.5 0 Calma 5 Sur 0 -- -- 98
2019-12-07 03:00:00 4.9 0 Calma 3 Sudeste 0 -- -- 97
2019-12-07 02:00:00 5.9 0 Calma 3 Este 0 -- -- 97
2019-12-07 01:00:00 6.6 0 Calma 3 Sur 0 -- -- 98
2019-12-07 00:00:00 6.3 0 Calma 5 Sur 0 -- -- 98
2019-12-06 23:00:00 5.8 0 Calma 5 Sur 0 -- -- 98
2019-12-06 22:00:00 4.7 0 Calma 4 Este 0 -- -- 95
2019-12-06 21:00:00 5.6 0 Calma 3 Sudeste 0 -- -- 94
2019-12-06 20:00:00 6.8 0 Calma 6 Sudeste 0 -- -- 92
2019-12-06 19:00:00 8.3 2 Sur 5 Sur 0 -- -- 89
2019-12-06 18:00:00 10.4 0 Calma 5 Sur 0 -- -- 84
2019-12-06 17:00:00 13.6 3 Sudeste 10 Sur 0 -- -- 72
2019-12-06 16:00:00 16.8 5 Sur 15 Sur 0 -- -- 59
2019-12-06 15:00:00 17.1 5 Sur 24 Sudoeste 0 -- -- 54
2019-12-06 14:00:00 16.4 10 Sudoeste 27 Sur 0 -- -- 58
2019-12-06 13:00:00 10.8 2 Sudoeste 6 Noroeste 0 -- -- 88
2019-12-06 12:00:00 8 0 Calma 4 Sudeste 0 -- -- 97
2019-12-06 11:00:00 6 0 Calma 3 Oeste 0 -- -- 99
2019-12-06 10:00:00 5.3 0 Calma 3 Oeste 0 -- -- 100
2019-12-06 09:00:00 4.9 2 Oeste 4 Oeste 0 -- -- 100
2019-12-06 08:00:00 5 2 Oeste 3 Oeste 0 -- -- 100
2019-12-06 07:00:00 4.9 0 Calma 4 Noroeste 0 -- -- 100
2019-12-06 06:00:00 4.8 0 Calma 3 Sudeste 0 -- -- 100
2019-12-06 05:00:00 4.7 0 Calma 4 Sudeste 0 -- -- 100
2019-12-06 04:00:00 4.8 0 Calma 3 Este 0.2 -- -- 99
2019-12-06 03:00:00 4.8 0 Calma 3 Norte 0 -- -- 99
2019-12-06 02:00:00 5 0 Calma 3 Este 0 -- -- 99
2019-12-06 01:00:00 5.3 0 Calma 2 Noroeste 0 -- -- 99
2019-12-06 00:00:00 5.2 0 Calma 3 Oeste 0 -- -- 99
2019-12-05 23:00:00 4.4 0 Calma 3 Sudeste 0 -- -- 98
2019-12-05 22:00:00 4.2 0 Calma 3 Sur 0 -- -- 97
2019-12-05 21:00:00 5 0 Calma 2 Sudeste 0 -- -- 96
2019-12-05 20:00:00 5.5 0 Calma 5 Sudeste 0 -- -- 96
2019-12-05 19:00:00 6.2 0 Calma 4 Sudeste 0 -- -- 93
2019-12-05 18:00:00 8.6 0 Calma 6 Este 0 -- -- 89
2019-12-05 17:00:00 12.2 0 Calma 9 Nordeste 0 -- -- 79
2019-12-05 16:00:00 13.5 3 Norte 10 Noroeste 0 -- -- 73
2019-12-05 15:00:00 13.2 6 Noroeste 13 Noroeste 0 -- -- 70
2019-12-05 14:00:00 13.6 6 Noroeste 16 Norte 0 -- -- 73
2019-12-05 13:00:00 13 3 Noroeste 11 Sudoeste 0 -- -- 75
2019-12-05 12:00:00 10.7 0 Calma 4 Sur 0 -- -- 84
2019-12-05 11:00:00 8.2 0 Calma 3 Sur 0 -- -- 99
2019-12-05 10:00:00 6.4 0 Calma 4 Sudeste 0 -- -- 97
2019-12-05 09:00:00 6.9 0 Calma 4 Sur 0 -- -- 98
2019-12-05 08:00:00 7.2 0 Calma 2 Sudeste 0 -- -- 98
2019-12-05 07:00:00 7.2 0 Calma 0 Calma 0 -- -- 97
2019-12-05 06:00:00 7.3 0 Calma 2 Noroeste 0 -- -- 98
2019-12-05 05:00:00 7.3 0 Calma 2 Oeste 0 -- -- 98
2019-12-05 04:00:00 7.1 0 Calma 2 Sudeste 0 -- -- 98
2019-12-05 03:00:00 7.1 0 Calma 2 Este 0 -- -- 97
2019-12-05 02:00:00 7.2 0 Calma 2 Sudoeste 0 -- -- 97
2019-12-05 01:00:00 7.3 0 Calma 5 Nordeste 0 -- -- 97
2019-12-05 00:00:00 7.3 3 Este 5 Este 0 -- -- 97
2019-12-04 23:00:00 7.2 0 Calma 3 Sudeste 0 -- -- 97
2019-12-04 22:00:00 7.3 2 Sudeste 4 Sudeste 0 -- -- 96
2019-12-04 21:00:00 8.4 0 Calma 4 Sudeste 0 -- -- 95
2019-12-04 20:00:00 8.5 0 Calma 4 Sudeste 0 -- -- 95
2019-12-04 19:00:00 8.9 3 Norte 10 Noroeste 0 -- -- 92
2019-12-04 18:00:00 9.2 0 Calma 16 Oeste 0 -- -- 89
2019-12-04 17:00:00 9.2 0 Calma 26 Oeste 0 -- -- 87
2019-12-04 16:00:00 9.5 3 Norte 12 Norte 0 -- -- 86
2019-12-04 15:00:00 7.8 0 Calma 2 Norte 0 -- -- 92
2019-12-04 14:00:00 5.8 0 Calma 3 Este 0 -- -- 99
2019-12-04 13:00:00 4.8 0 Calma 3 Nordeste 0 -- -- 100
2019-12-04 12:00:00 3.5 0 Calma 3 Nordeste 0 -- -- 100
2019-12-04 11:00:00 2.7 0 Calma 4 Nordeste 0 -- -- 100
2019-12-04 10:00:00 2 3 Noroeste 5 Noroeste 0 -- -- 100
2019-12-04 09:00:00 1.5 2 Sudeste 4 Sudeste 0 -- -- 100
2019-12-04 08:00:00 1.5 0 Calma 4 Sudeste 0 -- -- 100
2019-12-04 07:00:00 1.3 0 Calma 5 Sudeste 0 -- -- 100
2019-12-04 06:00:00 1.4 0 Calma 6 Sudeste 0 -- -- 100
2019-12-04 05:00:00 1.2 2 Sudeste 6 Sudeste 0 -- -- 100
2019-12-04 04:00:00 1.2 2 Este 4 Sudeste 0 -- -- 100
2019-12-04 03:00:00 1.5 0 Calma 5 Sudeste 0 -- -- 99
2019-12-04 02:00:00 1.6 0 Calma 3 Este 0 -- -- 99
2019-12-04 01:00:00 1.9 0 Calma 5 Sudeste 0 -- -- 99
2019-12-04 00:00:00 2.1 2 Este 4 Nordeste 0 -- -- 99
2019-12-03 23:00:00 2.1 0 Calma 3 Sudeste 0 -- -- 98
2019-12-03 22:00:00 1.4 0 Calma 3 Sudeste 0 -- -- 97
2019-12-03 21:00:00 1.5 0 Calma 2 Sur 0 -- -- 95
2019-12-03 20:00:00 2.8 0 Calma 3 Sudeste 0 -- -- 93
2019-12-03 19:00:00 4.6 0 Calma 8 Este 0 -- -- 92
2019-12-03 18:00:00 6.1 3 Este 7 Este 0 -- -- 87
2019-12-03 17:00:00 6.8 2 Este 8 Nordeste 0 -- -- 83
2019-12-03 16:00:00 7.2 3 Este 8 Nordeste 0 -- -- 82
2019-12-03 15:00:00 7.6 3 Este 8 Este 0 -- -- 80
2019-12-03 14:00:00 7.1 0 Calma 4 Noroeste 0 -- -- 82
2019-12-03 13:00:00 6.7 0 Calma 4 Sudoeste 0 -- -- 85
2019-12-03 12:00:00 5.9 0 Calma 9 Norte 0 -- -- 89
2019-12-03 11:00:00 5.5 3 Noroeste 9 Norte 0 -- -- 92
2019-12-03 10:00:00 5.1 0 Calma 4 Norte 0 -- -- 94
2019-12-03 09:00:00 4.4 0 Calma 4 Noroeste 0 -- -- 96
2019-12-03 08:00:00 4.6 0 Calma 5 Noroeste 0 -- -- 96
2019-12-03 07:00:00 5.1 0 Calma 6 Noroeste 0 -- -- 95
2019-12-03 06:00:00 5.3 2 Norte 6 Noroeste 0 -- -- 96
2019-12-03 05:00:00 5.2 0 Calma 3 Este 0 -- -- 95
2019-12-03 04:00:00 5.3 0 Calma 3 Este 0 -- -- 94
2019-12-03 03:00:00 5.4 0 Calma 2 Norte 0 -- -- 95
2019-12-03 02:00:00 5.5 0 Calma 4 Sudeste 0 -- -- 93
2019-12-03 01:00:00 5.6 2 Este 6 Sudeste 0 -- -- 92
2019-12-03 00:00:00 5.7 0 Calma 4 Este 0 -- -- 93
2019-12-02 23:00:00 5.9 0 Calma 4 Este 0 -- -- 95
2019-12-02 22:00:00 6 0 Calma 4 Este 0 -- -- 95
2019-12-02 21:00:00 6 2 Nordeste 6 Este 0 -- -- 94
2019-12-02 20:00:00 6.1 0 Calma 4 Nordeste 0 -- -- 95
2019-12-02 19:00:00 6.2 0 Calma 5 Nordeste 0 -- -- 95
2019-12-02 18:00:00 6.4 3 Norte 8 Noroeste 0 -- -- 95
2019-12-02 17:00:00 6.7 2 Norte 10 Noroeste 0.2 -- -- 95
2019-12-02 16:00:00 7.1 5 Noroeste 19 Noroeste 0 -- -- 95
2019-12-02 15:00:00 7.7 9 Noroeste 19 Noroeste 0.4 -- -- 95
2019-12-02 14:00:00 8.8 3 Noroeste 12 Noroeste 0.2 -- -- 96
2019-12-02 13:00:00 9.2 6 Norte 12 Noroeste 0.6 -- -- 95
2019-12-02 12:00:00 9.5 2 Norte 10 Nordeste 0 -- -- 94
2019-12-02 11:00:00 9.1 5 Nordeste 17 Nordeste 0 -- -- 96
2019-12-02 10:00:00 8.3 0 Calma 4 Nordeste 0 -- -- 100
2019-12-02 09:00:00 7.9 0 Calma 5 Sur 0.2 -- -- 100
2019-12-02 08:00:00 7.4 0 Calma 4 Este 0 -- -- 100
2019-12-02 07:00:00 7 0 Calma 4 Oeste 0 -- -- 100
2019-12-02 06:00:00 6.6 0 Calma 3 Sur 0 -- -- 100
2019-12-02 05:00:00 6.1 0 Calma 0 Calma 0.4 -- -- 100
2019-12-02 04:00:00 5.8 0 Calma 2 Nordeste 0 -- -- 99
2019-12-02 03:00:00 5.6 0 Calma 2 Noroeste 0 -- -- 99
2019-12-02 02:00:00 5.5 0 Calma 4 Nordeste 0 -- -- 99
2019-12-02 01:00:00 5.5 0 Calma 4 Nordeste 0 -- -- 99
2019-12-02 00:00:00 5.3 0 Calma 2 Sudoeste 0 -- -- 98
2019-12-01 23:00:00 4.8 0 Calma 3 Sudeste 0 -- -- 98
2019-12-01 22:00:00 4.3 0 Calma 3 Sudeste 0 -- -- 97
2019-12-01 21:00:00 5.2 0 Calma 2 Sudeste 0 -- -- 96
2019-12-01 20:00:00 6.3 0 Calma 3 Este 0 -- -- 96
2019-12-01 19:00:00 6.9 0 Calma 4 Sudeste 0 -- -- 92
2019-12-01 18:00:00 9.1 2 Sudeste 5 Sudeste 0 -- -- 89
2019-12-01 17:00:00 12.2 0 Calma 11 Noroeste 0 -- -- 84
2019-12-01 16:00:00 14.1 7 Noroeste 15 Noroeste 0 -- -- 68
2019-12-01 15:00:00 13.1 0 Calma 3 Sur 0 -- -- 83
2019-12-01 14:00:00 11.9 0 Calma 3 Sur 0 -- -- 89
2019-12-01 13:00:00 10.7 0 Calma 3 Sur 0 -- -- 92
2019-12-01 12:00:00 8 0 Calma 2 Oeste 0 -- -- 100
2019-12-01 11:00:00 5.7 0 Calma 2 Sudoeste 0 -- -- 100
2019-12-01 10:00:00 3.8 0 Calma 4 Oeste 0 -- -- 100
2019-12-01 09:00:00 3.5 0 Calma 3 Sudeste 0 -- -- 100
2019-12-01 08:00:00 3.8 0 Calma 3 Sudeste 0 -- -- 99
2019-12-01 07:00:00 4.3 0 Calma 3 Este 0 -- -- 99
2019-12-01 06:00:00 4.7 0 Calma 4 Sudeste 0 -- -- 99
2019-12-01 05:00:00 5.4 0 Calma 5 Este 0 -- -- 99
2019-12-01 04:00:00 6.5 2 Este 5 Este 0 -- -- 99
2019-12-01 03:00:00 6.7 2 Nordeste 6 Este 0 -- -- 99
2019-12-01 02:00:00 7.3 0 Calma 4 Este 0.2 -- -- 99
2019-12-01 01:00:00 7.8 2 Sudeste 4 Sudeste 0 -- -- 99
2019-12-01 00:00:00 8 0 Calma 4 Sudeste 0 -- -- 99
2019-11-30 23:00:00 7.6 0 Calma 4 Sudeste 0 -- -- 98
2019-11-30 22:00:00 7.7 0 Calma 3 Sudeste 0 -- -- 96
2019-11-30 21:00:00 9.1 0 Calma 5 Sur 0 -- -- 97
2019-11-30 20:00:00 10.1 0 Calma 8 Este 0 -- -- 97
2019-11-30 19:00:00 10.6 2 Norte 6 Nordeste 1.6 -- -- 98
2019-11-30 18:00:00 10.8 2 Oeste 4 Oeste 2.6 -- -- 97
2019-11-30 17:00:00 11.1 0 Calma 3 Este 4 -- -- 96
2019-11-30 16:00:00 11.4 0 Calma 5 Sudoeste 4.8 -- -- 96
2019-11-30 15:00:00 11.4 3 Este 17 Noroeste 5.4 -- -- 94
2019-11-30 14:00:00 12 6 Oeste 26 Noroeste 4.4 -- -- 90
2019-11-30 13:00:00 13.6 0 Calma 33 Noroeste 1 -- -- 88
2019-11-30 12:00:00 16.8 13 Sudoeste 24 Sudoeste 0 -- -- 65
2019-11-30 11:00:00 16.6 6 Sudeste 39 Sur 0 -- -- 63
2019-11-30 10:00:00 16.2 10 Sur 43 Sudoeste 0 -- -- 63
2019-11-30 09:00:00 15.7 10 Sudoeste 45 Sur 0 -- -- 64
2019-11-30 08:00:00 15.1 8 Sudeste 30 Oeste 0.6 -- -- 67
2019-11-30 07:00:00 15.4 7 Sudeste 27 Sur 0 -- -- 65
2019-11-30 06:00:00 14.3 6 Sudeste 40 Sudeste 0 -- -- 69
2019-11-30 05:00:00 7.2 3 Sudeste 15 Sudoeste 0 -- -- 100
2019-11-30 04:00:00 5.6 0 Calma 3 Sudeste 0 -- -- 99
2019-11-30 03:00:00 6.2 0 Calma 4 Este 0 -- -- 99
2019-11-30 02:00:00 6.7 3 Este 5 Sudoeste 0 -- -- 99
2019-11-30 01:00:00 7.4 0 Calma 0 Calma 0 -- -- 98
2019-11-30 00:00:00 7.6 0 Calma 0 Calma 0 -- -- 99
2019-11-29 23:00:00 6.9 0 Calma 0 Calma 0 -- -- 98
2019-11-29 22:00:00 6.7 0 Calma 0 Calma 0 -- -- 97
2019-11-29 21:00:00 7.1 0 Calma 4 Sudeste 0 -- -- 96
2019-11-29 20:00:00 7.8 0 Calma 4 Sudeste 0 -- -- 95
2019-11-29 19:00:00 8.9 0 Calma 4 Sudeste 0 -- -- 92
2019-11-29 18:00:00 10.8 2 Sudeste 7 Sudeste 0 -- -- 89
2019-11-29 17:00:00 13.4 3 Sudeste 8 Sudeste 0 -- -- 81
2019-11-29 16:00:00 16.6 3 Sudoeste 11 Norte 0 -- -- 72
2019-11-29 15:00:00 17.4 5 Norte 10 Noroeste 0 -- -- 66
2019-11-29 14:00:00 17 5 Noroeste 10 Noroeste 0 -- -- 68
2019-11-29 13:00:00 15.9 3 Sudoeste 9 Oeste 0 -- -- 77
2019-11-29 12:00:00 14.7 2 Sur 9 Oeste 0 -- -- 88
2019-11-29 11:00:00 13.6 0 Calma 0 Calma 0 -- -- 97
2019-11-29 10:00:00 12.2 0 Calma 0 Calma 0 -- -- 99
2019-11-29 09:00:00 11.5 0 Calma 0 Calma 0 -- -- 99
2019-11-29 08:00:00 11.4 0 Calma 0 Calma 0 -- -- 99
2019-11-29 07:00:00 11.6 0 Calma 4 Este 0 -- -- 99
2019-11-29 06:00:00 11.3 2 Este 6 Noroeste 0 -- -- 99
2019-11-29 05:00:00 11 0 Calma 4 Sudoeste 0.4 -- -- 99
2019-11-29 04:00:00 10.8 0 Calma 2 Sudeste 0.2 -- -- 99
2019-11-29 03:00:00 10.5 0 Calma 3 Sudeste 0.6 -- -- 99
2019-11-29 02:00:00 10.3 0 Calma 0 Calma 0.2 -- -- 99
2019-11-29 01:00:00 10.1 0 Calma 0 Calma 0.2 -- -- 99
2019-11-29 00:00:00 9.8 0 Calma 3 Sudeste 0 -- -- 98
2019-11-28 23:00:00 9.5 0 Calma 3 Sudeste 0 -- -- 98
2019-11-28 22:00:00 9.6 0 Calma 4 Sudeste 0 -- -- 97
2019-11-28 21:00:00 10.7 2 Este 5 Este 0.2 -- -- 97
2019-11-28 20:00:00 10.9 0 Calma 4 Sudeste 0.8 -- -- 97
2019-11-28 19:00:00 11.2 0 Calma 4 Este 1.2 -- -- 96
2019-11-28 18:00:00 11.7 2 Sudeste 15 Norte 2 -- -- 93
2019-11-28 17:00:00 12.5 6 Norte 17 Norte 0.8 -- -- 92
2019-11-28 16:00:00 13.2 0 Calma 4 Sur 0 -- -- 93
2019-11-28 15:00:00 13.6 0 Calma 3 Oeste 0 -- -- 91
2019-11-28 14:00:00 13.5 0 Calma 4 Oeste 0 -- -- 91
2019-11-28 13:00:00 12.9 0 Calma 4 Oeste 0 -- -- 96
2019-11-28 12:00:00 12.2 0 Calma 5 Noroeste 0 -- -- 98
2019-11-28 11:00:00 11.5 3 Este 5 Nordeste 0 -- -- 99
2019-11-28 10:00:00 10.8 0 Calma 5 Sudeste 0 -- -- 99
2019-11-28 09:00:00 10 0 Calma 6 Este 0.2 -- -- 99
2019-11-28 08:00:00 9.3 0 Calma 7 Nordeste 1 -- -- 99
2019-11-28 07:00:00 9 3 Norte 6 Nordeste 0 -- -- 98
2019-11-28 06:00:00 8.7 0 Calma 9 Sudeste 0.4 -- -- 98
2019-11-28 05:00:00 7.8 0 Calma 4 Sudeste 0 -- -- 98
2019-11-28 04:00:00 7.6 0 Calma 5 Sudeste 0 -- -- 97
2019-11-28 03:00:00 8.6 0 Calma 5 Este 0 -- -- 97
2019-11-28 02:00:00 9.1 0 Calma 5 Este 0 -- -- 97
2019-11-28 01:00:00 9.4 0 Calma 4 Sur 0 -- -- 97
2019-11-28 00:00:00 9.7 0 Calma 3 Sur 0 -- -- 96
2019-11-27 23:00:00 9.8 0 Calma 4 Sur 0 -- -- 95
2019-11-27 22:00:00 10.8 0 Calma 4 Sur 0.2 -- -- 95
2019-11-27 21:00:00 11.1 0 Calma 5 Sur 0 -- -- 95
2019-11-27 20:00:00 11.5 0 Calma 10 Nordeste 0.2 -- -- 92
2019-11-27 19:00:00 12.5 3 Sudeste 33 Noroeste 0.4 -- -- 87
2019-11-27 18:00:00 14.6 4 Oeste 14 Oeste 0 -- -- 70
2019-11-27 17:00:00 15.4 4 Sudoeste 14 Sudoeste 0 -- -- 65
2019-11-27 16:00:00 16.4 2 Sudoeste 15 Oeste 0 -- -- 57
2019-11-27 15:00:00 17.1 4 Sudoeste 12 Sudoeste 0 -- -- 61
2019-11-27 14:00:00 17.6 5 Sudoeste 19 Sur 0 -- -- 58
2019-11-27 06:00:00 7.8 0 Calma 5 Sudeste 0 -- -- 97
2019-11-27 05:00:00 8.3 0 Calma 6 Sudoeste 0 -- -- 97
2019-11-27 04:00:00 8.1 0 Calma 4 Sudeste 0 -- -- 95
2019-11-27 03:00:00 9.1 0 Calma 4 Sudeste 0 -- -- 94
2019-11-27 02:00:00 10.1 0 Calma 5 Sudeste 0 -- -- 94
2019-11-27 01:00:00 11.1 0 Calma 6 Sudeste 0 -- -- 90
2019-11-27 00:00:00 13.4 0 Calma 19 Oeste 0 -- -- 83
2019-11-26 23:00:00 15.4 9 Oeste 37 Noroeste 0 -- -- 78
2019-11-26 22:00:00 19.2 14 Sudoeste 32 Sur 0 -- -- 55
2019-11-26 21:00:00 18.3 7 Sudoeste 29 Sudeste 0 -- -- 65
2019-11-26 20:00:00 18.9 13 Sur 49 Sudoeste 0 -- -- 62
2019-11-26 19:00:00 19.2 14 Sur 40 Sudoeste 0 -- -- 59
2019-11-26 18:00:00 18.8 6 Sudoeste 30 Sudoeste 0 -- -- 62
2019-11-26 17:00:00 17.7 5 Sudeste 17 Sudeste 0 -- -- 66
2019-11-26 16:00:00 17.8 7 Sur 26 Sudoeste 0 -- -- 64
2019-11-26 15:00:00 17.9 6 Sudeste 33 Sur 0 -- -- 62
2019-11-26 14:00:00 17.9 15 Sur 34 Sur 0 -- -- 60
2019-11-26 13:00:00 18.2 9 Sudeste 31 Sur 0 -- -- 59
2019-11-26 12:00:00 17.9 13 Sur 33 Sur 0 -- -- 60
2019-11-26 11:00:00 17.5 8 Sur 26 Sudoeste 0 -- -- 61
2019-11-26 10:00:00 16.1 4 Norte 27 Sur 0 -- -- 65
2019-11-26 09:00:00 15.5 7 Sudeste 26 Sudoeste 0 -- -- 66
2019-11-26 08:00:00 15 5 Sur 26 Sur 0 -- -- 67
2019-11-26 07:00:00 14.8 5 Sudeste 21 Sur 0 -- -- 68
2019-11-26 06:00:00 12.3 6 Sudeste 18 Sudeste 0 -- -- 82
2019-11-26 05:00:00 8.3 0 Calma 7 Sudoeste 0 -- -- 99
2019-11-26 04:00:00 7.7 0 Calma 0 Calma 0 -- -- 98
2019-11-26 03:00:00 8.6 0 Calma 0 Calma 0 -- -- 98
2019-11-26 02:00:00 9.3 0 Calma 0 Calma 0 -- -- 98
2019-11-26 01:00:00 9.9 0 Calma 0 Calma 0 -- -- 98
2019-11-26 00:00:00 10 0 Calma 0 Calma 0 -- -- 97
2019-11-25 23:00:00 10 0 Calma 0 Calma 0 -- -- 96
2019-11-25 22:00:00 11.1 0 Calma 2 Norte 0 -- -- 95
2019-11-25 21:00:00 12.4 0 Calma 0 Calma 0 -- -- 95
2019-11-25 20:00:00 12.8 0 Calma 0 Calma 0 -- -- 94
2019-11-25 19:00:00 13.3 0 Calma 0 Calma 0 -- -- 92
2019-11-25 18:00:00 13.9 0 Calma 4 Sudeste 0 -- -- 90
2019-11-25 17:00:00 15.2 0 Calma 7 Noroeste 0 -- -- 85
2019-11-25 16:00:00 16.1 0 Calma 6 Oeste 0 -- -- 79
2019-11-25 15:00:00 16 3 Norte 13 Nordeste 0 -- -- 79
2019-11-25 14:00:00 16.5 7 Nordeste 17 Norte 0 -- -- 71
2019-11-25 13:00:00 17.1 2 Norte 4 Nordeste 0 -- -- 72
2019-11-25 12:00:00 15.2 2 Sur 5 Sur 0 -- -- 78
2019-11-25 11:00:00 12.2 2 Oeste 5 Noroeste 0 -- -- 91
2019-11-25 10:00:00 9.4 0 Calma 5 Sur 0 -- -- 99
2019-11-25 09:00:00 8.8 0 Calma 5 Sur 0 -- -- 97
2019-11-25 08:00:00 8.7 0 Calma 7 Noroeste 0 -- -- 97
2019-11-25 07:00:00 8.7 3 Oeste 8 Oeste 0.2 -- -- 97
2019-11-25 06:00:00 9.1 2 Noroeste 9 Noroeste 0 -- -- 96
2019-11-25 05:00:00 8.7 3 Norte 10 Noroeste 0 -- -- 98
2019-11-25 04:00:00 8.5 0 Calma 6 Sur 0 -- -- 97
2019-11-25 03:00:00 9.5 3 Norte 9 Noroeste 0 -- -- 98
2019-11-25 02:00:00 9.3 2 Sudoeste 7 Oeste 0 -- -- 98
2019-11-25 01:00:00 9 0 Calma 8 Norte 0 -- -- 97
2019-11-25 00:00:00 9.2 3 Oeste 10 Noroeste 1 -- -- 97
2019-11-24 23:00:00 9.2 2 Norte 7 Noroeste 2.2 -- -- 98
2019-11-24 22:00:00 8.3 0 Calma 7 Sudoeste 0 -- -- 97
2019-11-24 21:00:00 8 0 Calma 7 Noroeste 0 -- -- 97
2019-11-24 20:00:00 7.4 0 Calma 4 Sudeste 0 -- -- 97
2019-11-24 19:00:00 7.8 0 Calma 5 Este 0 -- -- 92
2019-11-24 18:00:00 9.6 0 Calma 5 Sudeste 0 -- -- 90
2019-11-24 17:00:00 12.7 0 Calma 4 Sur 0 -- -- 87
2019-11-24 16:00:00 13.2 2 Sur 14 Sudoeste 0 -- -- 77
2019-11-24 15:00:00 14.4 7 Oeste 14 Oeste 0 -- -- 70
2019-11-24 14:00:00 13.4 3 Norte 5 Noroeste 0 -- -- 82
2019-11-24 13:00:00 12 2 Oeste 6 Nordeste 0.2 -- -- 93
2019-11-24 12:00:00 10.5 0 Calma 3 Oeste 0.8 -- -- 97
2019-11-24 11:00:00 9.9 0 Calma 9 Sudeste 1.4 -- -- 97
2019-11-24 10:00:00 9.7 2 Norte 6 Norte 1.2 -- -- 98
2019-11-24 09:00:00 9.1 0 Calma 10 Sur 1.4 -- -- 97
2019-11-24 08:00:00 9 5 Norte 10 Nordeste 1.8 -- -- 98
2019-11-24 07:00:00 8.9 3 Este 8 Sudoeste 6.6 -- -- 97
2019-11-24 06:00:00 8.9 3 Este 6 Nordeste 2.8 -- -- 97
2019-11-24 05:00:00 8.9 2 Este 6 Sudoeste 1.6 -- -- 96
2019-11-24 04:00:00 9.1 3 Oeste 9 Oeste 4.4 -- -- 94
2019-11-24 03:00:00 9.2 4 Noroeste 26 Oeste 0 -- -- 91
2019-11-24 02:00:00 9.4 4 Norte 30 Oeste 1.4 -- -- 90
2019-11-24 01:00:00 9.1 7 Oeste 17 Oeste 2 -- -- 91
2019-11-24 00:00:00 8.9 4 Sudoeste 37 Oeste 6.8 -- -- 92
2019-11-23 23:00:00 9.7 5 Noroeste 23 Norte 4 -- -- 92
2019-11-23 22:00:00 9.8 4 Sudoeste 30 Noroeste 4.8 -- -- 90
2019-11-23 21:00:00 9.6 3 Noroeste 17 Oeste 1.8 -- -- 93
2019-11-23 20:00:00 10.9 6 Oeste 26 Oeste 2.6 -- -- 87
2019-11-23 19:00:00 11.3 10 Oeste 30 Oeste 2.8 -- -- 82
2019-11-23 18:00:00 11.1 6 Noroeste 34 Oeste 1.8 -- -- 86
2019-11-23 17:00:00 11.7 14 Oeste 41 Oeste 0.4 -- -- 79
2019-11-23 16:00:00 11.3 12 Noroeste 34 Sur 2.2 -- -- 79
2019-11-23 15:00:00 11.7 13 Oeste 55 Noroeste 2.2 -- -- 80
2019-11-23 14:00:00 13.2 17 Oeste 57 Noroeste 0 -- -- 64
2019-11-23 13:00:00 12.5 21 Oeste 53 Oeste 0 -- -- 68
2019-11-23 12:00:00 10.7 17 Oeste 48 Sudoeste 4.6 -- -- 84
2019-11-23 11:00:00 10.8 20 Oeste 69 Noroeste 5.6 -- -- 91
2019-11-23 10:00:00 10.8 25 Oeste 67 Oeste 11.6 -- -- 92
2019-11-23 09:00:00 11 21 Oeste 47 Oeste 9.6 -- -- 93
2019-11-23 08:00:00 9.6 8 Sudoeste 20 Sudoeste 6.2 -- -- 91
2019-11-23 07:00:00 10.1 0 Calma 15 Sur 2.8 -- -- 90
2019-11-23 06:00:00 11.3 5 Sudoeste 17 Sudoeste 0.2 -- -- 80
2019-11-23 05:00:00 12.1 5 Sudoeste 19 Sur 0.2 -- -- 74
2019-11-23 04:00:00 13.3 6 Sudeste 17 Sudeste 0 -- -- 63
2019-11-23 03:00:00 13.3 5 Sudeste 17 Sudeste 0 -- -- 63
2019-11-23 02:00:00 14 6 Sudeste 24 Sudeste 0 -- -- 63
2019-11-23 01:00:00 14.4 8 Sudeste 32 Sudeste 0 -- -- 64
2019-11-23 00:00:00 14 4 Este 25 Sudeste 0 -- -- 65
2019-11-22 23:00:00 13.7 10 Sudeste 28 Este 0 -- -- 72
2019-11-22 22:00:00 13.4 6 Sur 25 Sur 0 -- -- 77
2019-11-22 21:00:00 12 6 Sudeste 18 Sudeste 0.4 -- -- 84
2019-11-22 20:00:00 12.7 5 Sur 27 Sudoeste 3.4 -- -- 84
2019-11-22 19:00:00 15.1 15 Sudoeste 37 Sur 0 -- -- 67
2019-11-22 18:00:00 14.3 8 Sur 41 Sudoeste 0 -- -- 66
2019-11-22 17:00:00 15 7 Oeste 28 Sudoeste 0 -- -- 63
2019-11-22 16:00:00 14.3 12 Sudoeste 45 Sudoeste 0 -- -- 66
2019-11-22 15:00:00 14.5 13 Sudoeste 54 Sudoeste 0 -- -- 63
2019-11-22 14:00:00 14.5 19 Sudoeste 51 Sudoeste 0 -- -- 61
2019-11-22 13:00:00 14.7 10 Sudoeste 47 Sudoeste 0 -- -- 61
2019-11-22 12:00:00 14.2 8 Sudoeste 41 Sudoeste 0 -- -- 59
2019-11-22 11:00:00 13.7 16 Sur 37 Sudoeste 0 -- -- 61
2019-11-22 10:00:00 13.3 13 Sur 45 Sudoeste 0 -- -- 61
2019-11-22 09:00:00 13.4 11 Sudoeste 47 Oeste 0 -- -- 60
2019-11-22 08:00:00 13 12 Sudoeste 30 Sudoeste 0 -- -- 60
2019-11-22 07:00:00 12.7 5 Sudoeste 32 Sudeste 0 -- -- 62
2019-11-22 06:00:00 12.4 7 Sur 32 Sur 0 -- -- 62
2019-11-22 05:00:00 11.7 5 Sudoeste 21 Sudoeste 0 -- -- 66
2019-11-22 04:00:00 11.6 4 Sudeste 20 Sur 0 -- -- 65
2019-11-22 03:00:00 11.1 3 Sudeste 18 Este 0 -- -- 69
2019-11-22 02:00:00 11.4 5 Sudeste 26 Este 0 -- -- 68
2019-11-22 01:00:00 9.3 9 Sudeste 20 Sudeste 0 -- -- 81
2019-11-22 00:00:00 5.4 0 Calma 5 Oeste 0 -- -- 97
2019-11-21 23:00:00 4.9 0 Calma 6 Sur 0 -- -- 96
2019-11-21 22:00:00 4.9 0 Calma 5 Sur 0 -- -- 95
2019-11-21 21:00:00 5.3 0 Calma 4 Sur 0 -- -- 95
2019-11-21 20:00:00 5.9 0 Calma 6 Sudeste 0 -- -- 92
2019-11-21 19:00:00 7.3 0 Calma 3 Sudeste 0 -- -- 86
2019-11-21 18:00:00 10.2 0 Calma 11 Sur 0 -- -- 75
2019-11-21 17:00:00 13 2 Sur 13 Sur 0 -- -- 65
2019-11-21 16:00:00 14.6 5 Sur 19 Sur 0 -- -- 60
2019-11-21 15:00:00 14.8 8 Sur 25 Sur 0 -- -- 56
2019-11-21 14:00:00 15.1 8 Sur 19 Sudeste 0 -- -- 56
2019-11-21 13:00:00 14.6 8 Sur 25 Sudoeste 0 -- -- 56
2019-11-21 12:00:00 13.8 6 Sur 29 Sudoeste 0 -- -- 60
2019-11-21 11:00:00 12.4 8 Sudeste 27 Sur 0 -- -- 64
2019-11-21 10:00:00 11.3 7 Sur 16 Sur 0 -- -- 67
2019-11-21 09:00:00 10.4 5 Sur 19 Este 0 -- -- 69
2019-11-21 08:00:00 10.5 4 Sudeste 27 Sudoeste 0 -- -- 68
2019-11-21 07:00:00 10.5 9 Sur 23 Sudeste 0 -- -- 69
2019-11-21 06:00:00 10.4 4 Sudeste 16 Sudeste 0 -- -- 69
2019-11-21 05:00:00 10.5 6 Sudeste 23 Sudeste 0 -- -- 69
2019-11-21 04:00:00 10.3 5 Sur 21 Sur 0 -- -- 70
2019-11-21 03:00:00 10.3 9 Sudeste 28 Sur 0 -- -- 69
2019-11-21 02:00:00 10.5 9 Sur 32 Sudoeste 0 -- -- 68
2019-11-21 01:00:00 10.6 6 Sur 29 Sur 0 -- -- 68
2019-11-21 00:00:00 10.8 10 Sur 29 Sudoeste 0.2 -- -- 66
2019-11-20 23:00:00 11.4 9 Sur 27 Oeste 0 -- -- 63
2019-11-20 22:00:00 11.4 6 Sudeste 22 Sudeste 0 -- -- 60
2019-11-20 21:00:00 9.2 0 Calma 7 Sudeste 0 -- -- 86
2019-11-20 20:00:00 10.5 2 Noroeste 10 Sudoeste 0 -- -- 74
2019-11-20 19:00:00 11 0 Calma 14 Sudoeste 0 -- -- 70
2019-11-20 18:00:00 12.4 4 Sudoeste 18 Sur 0 -- -- 56
2019-11-20 17:00:00 13.2 0 Calma 16 Sur 0 -- -- 64
2019-11-20 16:00:00 14 6 Sudoeste 20 Sudoeste 0 -- -- 53
2019-11-20 15:00:00 13.8 9 Sur 33 Sudoeste 0 -- -- 52
2019-11-20 14:00:00 13.1 8 Sur 27 Sur 0 -- -- 53
2019-11-20 13:00:00 12.6 10 Sur 26 Sudoeste 0 -- -- 57
2019-11-20 12:00:00 11.5 9 Sur 27 Sur 0 -- -- 58
2019-11-20 11:00:00 10.7 8 Sur 31 Sur 0 -- -- 60
2019-11-20 10:00:00 10.2 7 Sudeste 24 Sur 0 -- -- 62
2019-11-20 09:00:00 9.6 10 Sudeste 25 Sur 0 -- -- 62
2019-11-20 08:00:00 9.1 8 Sudeste 24 Sur 0 -- -- 65
2019-11-20 07:00:00 8.8 5 Sur 35 Sudeste 0 -- -- 69
2019-11-20 06:00:00 5.1 5 Sur 22 Este 0 -- -- 100
2019-11-20 05:00:00 1.6 0 Calma 7 Sudoeste 0 -- -- 100
2019-11-20 04:00:00 1.1 0 Calma 4 Sudeste 0 -- -- 99
2019-11-20 03:00:00 1.7 0 Calma 2 Sudeste 0 -- -- 99
2019-11-20 02:00:00 2.1 0 Calma 4 Sudeste 0 -- -- 99
2019-11-20 01:00:00 3 0 Calma 3 Este 0 -- -- 99
2019-11-20 00:00:00 3.3 0 Calma 3 Nordeste 0 -- -- 99
2019-11-19 23:00:00 2.9 0 Calma 2 Sudeste 0 -- -- 98
2019-11-19 22:00:00 2.2 0 Calma 3 Este 0 -- -- 97
2019-11-19 21:00:00 2.8 0 Calma 3 Sudeste 0 -- -- 96
2019-11-19 20:00:00 3.6 0 Calma 3 Este 0 -- -- 95
2019-11-19 19:00:00 4.7 2 Sudeste 5 Sudeste 0 -- -- 93
2019-11-19 18:00:00 6.3 2 Sudeste 6 Este 0 -- -- 88
2019-11-19 17:00:00 10.1 4 Sudeste 13 Este 0 -- -- 76
2019-11-19 16:00:00 11.3 4 Este 12 Este 0 -- -- 65
2019-11-19 15:00:00 12 3 Este 9 Este 0 -- -- 63
2019-11-19 14:00:00 10.5 0 Calma 4 Sur 0 -- -- 77
2019-11-19 13:00:00 9.3 2 Sudoeste 4 Sudoeste 0 -- -- 83
2019-11-19 12:00:00 6.7 0 Calma 6 Nordeste 0 -- -- 92
2019-11-19 11:00:00 5.3 2 Oeste 5 Este 0 -- -- 97
2019-11-19 10:00:00 4.2 2 Nordeste 6 Nordeste 0 -- -- 99
2019-11-19 09:00:00 3.6 2 Sudeste 5 Sudeste 0 -- -- 99
2019-11-19 08:00:00 3.6 0 Calma 4 Sudeste 0 -- -- 99
2019-11-19 07:00:00 3.9 0 Calma 5 Sudeste 0 -- -- 99
2019-11-19 06:00:00 3.8 0 Calma 4 Sudeste 0 -- -- 98
2019-11-19 05:00:00 4.1 2 Sudeste 4 Sudeste 0 -- -- 97
2019-11-19 04:00:00 5.1 0 Calma 3 Sudeste 0.2 -- -- 98
2019-11-19 03:00:00 5.3 0 Calma 2 Sur 0 -- -- 98
2019-11-19 02:00:00 5.1 0 Calma 3 Sudeste 0 -- -- 98
2019-11-19 01:00:00 4.9 0 Calma 4 Sudoeste 0 -- -- 98
2019-11-19 00:00:00 4.8 0 Calma 4 Sudeste 0 -- -- 98
2019-11-18 23:00:00 4.3 0 Calma 0 Calma 0 -- -- 98
2019-11-18 22:00:00 4.1 0 Calma 2 Sur 0 -- -- 97
2019-11-18 21:00:00 4 0 Calma 6 Sudeste 0 -- -- 95
2019-11-18 20:00:00 5.7 0 Calma 4 Sudeste 0 -- -- 93
2019-11-18 19:00:00 6.5 0 Calma 3 Sudeste 0 -- -- 93
2019-11-18 18:00:00 6.9 0 Calma 3 Sudeste 0 -- -- 90
2019-11-18 17:00:00 8.5 0 Calma 5 Noroeste 0 -- -- 84
2019-11-18 16:00:00 9.2 4 Noroeste 6 Noroeste 0 -- -- 69
2019-11-18 15:00:00 9.7 3 Norte 9 Sur 0 -- -- 67
2019-11-18 14:00:00 9.4 3 Norte 14 Noroeste 0 -- -- 74
2019-11-18 13:00:00 9.2 3 Sudoeste 5 Sur 0 -- -- 76
2019-11-18 12:00:00 8.7 2 Sudoeste 4 Sur 0 -- -- 85
2019-11-18 11:00:00 6.8 0 Calma 4 Sudoeste 0 -- -- 97
2019-11-18 10:00:00 6 0 Calma 3 Oeste 0 -- -- 98
2019-11-18 09:00:00 5.2 0 Calma 4 Sur 0 -- -- 98
2019-11-18 08:00:00 5.6 0 Calma 6 Norte 0.2 -- -- 98
2019-11-18 07:00:00 5.5 0 Calma 4 Este 0 -- -- 98
2019-11-18 06:00:00 5.5 2 Sudeste 4 Este 0 -- -- 97
2019-11-18 05:00:00 6 0 Calma 10 Este 0.2 -- -- 94
2019-11-18 04:00:00 7.7 4 Norte 13 Nordeste 1.4 -- -- 91
2019-11-18 03:00:00 8.4 0 Calma 9 Noroeste 0.4 -- -- 96
2019-11-18 02:00:00 8.7 2 Sudeste 9 Nordeste 0.2 -- -- 94
2019-11-18 01:00:00 8.5 2 Sudoeste 5 Sudoeste 0.4 -- -- 98
2019-11-18 00:00:00 8.2 4 Sudeste 7 Norte 5.8 -- -- 97
2019-11-17 23:00:00 8.5 3 Nordeste 22 Oeste 2 -- -- 95
2019-11-17 22:00:00 9 8 Sudoeste 22 Sudoeste 0.8 -- -- 92
2019-11-17 21:00:00 9 7 Oeste 29 Sudoeste 2.6 -- -- 91
2019-11-17 20:00:00 9.3 2 Sudoeste 28 Oeste 3 -- -- 91
2019-11-17 19:00:00 8.8 2 Norte 18 Sudoeste 0 -- -- 96
2019-11-17 18:00:00 9 3 Noroeste 19 Noroeste 1 -- -- 96
2019-11-17 17:00:00 9.8 13 Oeste 35 Oeste 3 -- -- 87
2019-11-17 16:00:00 10.4 3 Nordeste 13 Sudoeste 0.8 -- -- 93
2019-11-17 15:00:00 9.8 0 Calma 7 Este 0.4 -- -- 95
2019-11-17 14:00:00 9.5 2 Nordeste 6 Nordeste 0.4 -- -- 92
2019-11-17 13:00:00 9.6 3 Norte 6 Noroeste 0.4 -- -- 93
2019-11-17 12:00:00 9.5 0 Calma 13 Este 0.2 -- -- 88
2019-11-17 11:00:00 9.2 2 Noroeste 9 Noroeste 0 -- -- 92
2019-11-17 10:00:00 8.2 0 Calma 7 Norte 0 -- -- 98
2019-11-17 09:00:00 7.5 3 Norte 6 Norte 0 -- -- 98
2019-11-17 08:00:00 7.4 0 Calma 4 Nordeste 0 -- -- 98
2019-11-17 07:00:00 7.6 0 Calma 4 Nordeste 1.2 -- -- 98
2019-11-17 06:00:00 7.5 3 Norte 7 Sur 0.2 -- -- 98
2019-11-17 05:00:00 7.2 0 Calma 5 Norte 0 -- -- 98
2019-11-17 04:00:00 6.9 0 Calma 6 Sudeste 0 -- -- 97
2019-11-17 03:00:00 6.8 0 Calma 5 Nordeste 0 -- -- 97
2019-11-17 02:00:00 6.9 2 Norte 6 Noroeste 0 -- -- 96
2019-11-17 01:00:00 7 3 Norte 15 Oeste 0 -- -- 94
2019-11-17 00:00:00 8.3 6 Oeste 25 Oeste 0 -- -- 82
2019-11-16 23:00:00 8.3 2 Norte 19 Oeste 0.6 -- -- 89
2019-11-16 22:00:00 8.3 5 Oeste 24 Sudoeste 0.2 -- -- 85
2019-11-16 21:00:00 8 8 Oeste 32 Sudoeste 2.8 -- -- 91
2019-11-16 20:00:00 8.6 9 Oeste 28 Sur 0.4 -- -- 85
2019-11-16 19:00:00 8.5 12 Oeste 37 Sudoeste 1 -- -- 87
2019-11-16 18:00:00 8.1 6 Oeste 28 Oeste 3 -- -- 92
2019-11-16 17:00:00 7.6 2 Nordeste 32 Sudoeste 6.4 -- -- 95
2019-11-16 16:00:00 7.3 2 Sur 24 Sur 1.4 -- -- 91
2019-11-16 15:00:00 6.6 9 Sur 22 Sudoeste 1 -- -- 90
2019-11-16 14:00:00 6.5 9 Sur 21 Sur 2.6 -- -- 90
2019-11-16 13:00:00 6 8 Sudoeste 19 Sudoeste 3.2 -- -- 90
2019-11-16 12:00:00 6.5 4 Sudoeste 20 Sudoeste 3.4 -- -- 93
2019-11-16 11:00:00 6.3 3 Este 26 Sur 2.8 -- -- 96
2019-11-16 10:00:00 4.6 3 Sudeste 7 Sudeste 0.4 -- -- 100
2019-11-16 09:00:00 3.5 2 Sur 4 Sur 0 -- -- 100
2019-11-16 08:00:00 2.4 0 Calma 3 Nordeste 0 -- -- 100
2019-11-16 07:00:00 1.6 0 Calma 3 Sur 0 -- -- 99
2019-11-16 06:00:00 1.8 0 Calma 3 Este 0 -- -- 99
2019-11-16 05:00:00 2.5 0 Calma 4 Sudeste 0.2 -- -- 98
2019-11-16 04:00:00 2.6 0 Calma 3 Sudeste 0 -- -- 99
2019-11-16 03:00:00 3.1 0 Calma 5 Sur 0 -- -- 99
2019-11-16 02:00:00 3 0 Calma 3 Sur 0 -- -- 99
2019-11-16 01:00:00 3 0 Calma 3 Sudeste 0 -- -- 98
2019-11-16 00:00:00 3.3 0 Calma 5 Sur 0 -- -- 97